Time;durP1;ratioP1;P1;durP2;ratioP2;P2;SDS_P1;SDS_P2;PMS_P1;PMS_P2;Temp;Humidity;BMP_temperature;BMP_pressure;BME280_temperature;BME280_humidity;BME280_pressure;Samples;Min_cycle;Max_cycle;Signal;HPM_P1;HPM_P2
2021/01/26 00:01:39;;;;;;;21.92;3.67;;;5.50;99.90;;;;;;5036603;28;20038;-88
2021/01/26 00:04:05;;;;;;;27.50;3.47;;;5.40;99.90;;;;;;5024155;28;20029;-89
2021/01/26 00:06:31;;;;;;;10.07;2.25;;;5.20;99.90;;;;;;5014428;28;20434;-90
2021/01/26 00:08:57;;;;;;;11.00;2.45;;;5.10;99.90;;;;;;5042115;28;20071;-89
2021/01/26 00:11:22;;;;;;;18.73;2.50;;;5.10;99.90;;;;;;5020333;28;20029;-88
2021/01/26 00:13:48;;;;;;;19.30;3.63;;;5.00;99.90;;;;;;5020993;28;20052;-88
2021/01/26 00:16:14;;;;;;;16.67;2.78;;;5.00;99.90;;;;;;5035617;28;20483;-88
2021/01/26 00:18:40;;;;;;;21.63;2.85;;;4.90;99.90;;;;;;5039437;28;20033;-88
2021/01/26 00:21:06;;;;;;;24.63;3.53;;;4.90;99.90;;;;;;5021178;28;20502;-88
2021/01/26 00:23:31;;;;;;;21.10;4.60;;;4.90;99.90;;;;;;5022721;28;20030;-88
2021/01/26 00:25:57;;;;;;;25.63;4.35;;;4.90;99.90;;;;;;5035504;28;20435;-89
2021/01/26 00:28:23;;;;;;;18.88;3.78;;;4.90;99.90;;;;;;5034916;28;20463;-88
2021/01/26 00:30:48;;;;;;;18.27;3.67;;;5.00;99.90;;;;;;5034165;28;20483;-89
2021/01/26 00:33:23;;;;;;;26.40;4.15;;;5.00;99.90;;;;;;5034121;28;20068;-86
2021/01/26 00:35:50;;;;;;;21.85;4.60;;;5.10;99.90;;;;;;5033191;28;20028;-86
2021/01/26 00:38:16;;;;;;;22.58;4.18;;;5.20;99.90;;;;;;5001443;28;20041;-88
2021/01/26 00:40:41;;;;;;;22.23;5.22;;;5.30;99.90;;;;;;5017310;28;20136;-87
2021/01/26 00:43:09;;;;;;;31.33;5.00;;;5.30;99.90;;;;;;5034099;28;20104;-87
2021/01/26 00:45:35;;;;;;;16.85;3.30;;;5.40;99.90;;;;;;5033712;28;20025;-87
2021/01/26 00:48:01;;;;;;;18.17;2.85;;;5.40;99.90;;;;;;5033805;28;20064;-88
2021/01/26 00:50:27;;;;;;;20.83;3.53;;;5.30;99.90;;;;;;5034034;28;20134;-88
2021/01/26 00:52:53;;;;;;;21.65;3.85;;;5.20;99.90;;;;;;5017714;28;20036;-88
2021/01/26 00:55:22;;;;;;;24.60;3.67;;;5.10;99.90;;;;;;5034504;28;20057;-88
2021/01/26 00:57:47;;;;;;;15.25;3.58;;;5.10;99.90;;;;;;5018483;28;20037;-89
2021/01/26 01:00:19;;;;;;;12.48;3.00;;;5.10;99.90;;;;;;5035687;28;20390;-88
2021/01/26 01:02:45;;;;;;;28.88;3.40;;;5.10;99.90;;;;;;5033585;28;20087;-89
2021/01/26 01:05:12;;;;;;;19.83;3.03;;;5.20;99.90;;;;;;5017280;28;20034;-90
2021/01/26 01:07:37;;;;;;;17.75;3.30;;;5.20;99.90;;;;;;5035034;28;20060;-89
2021/01/26 01:10:05;;;;;;;17.05;2.90;;;5.20;99.90;;;;;;5034324;28;20077;-89
2021/01/26 01:12:31;;;;;;;13.82;2.80;;;5.20;99.90;;;;;;5034267;28;20490;-88
2021/01/26 01:14:57;;;;;;;15.93;2.92;;;5.10;99.90;;;;;;5000112;28;20029;-90
2021/01/26 01:17:22;;;;;;;11.18;3.05;;;5.10;99.90;;;;;;5016763;28;20037;-89
2021/01/26 01:19:48;;;;;;;13.65;3.40;;;5.10;99.90;;;;;;5017083;28;20132;-89
2021/01/26 01:22:16;;;;;;;14.93;2.75;;;5.10;99.90;;;;;;5033525;28;20108;-89
2021/01/26 01:24:42;;;;;;;18.85;4.03;;;5.00;99.90;;;;;;5017171;28;20037;-89
2021/01/26 01:27:07;;;;;;;23.98;4.13;;;5.00;99.90;;;;;;5034969;28;20364;-89
2021/01/26 01:29:33;;;;;;;26.70;4.95;;;5.00;99.90;;;;;;5017822;28;20029;-88
2021/01/26 01:31:59;;;;;;;26.85;3.85;;;5.00;99.90;;;;;;5034357;28;20033;-89
2021/01/26 01:34:25;;;;;;;29.15;5.45;;;5.00;99.90;;;;;;5033177;28;20032;-89
2021/01/26 01:36:51;;;;;;;25.10;4.55;;;5.00;99.90;;;;;;5032894;28;20046;-89
2021/01/26 01:39:17;;;;;;;23.80;4.82;;;5.10;99.90;;;;;;5032848;28;20398;-88
2021/01/26 01:41:43;;;;;;;21.85;4.10;;;5.20;99.90;;;;;;5033006;28;20115;-89
2021/01/26 01:44:10;;;;;;;24.92;4.88;;;5.20;99.90;;;;;;5025602;28;20030;-89
2021/01/26 01:46:41;;;;;;;23.17;4.28;;;5.30;99.90;;;;;;5036788;28;20049;-89
2021/01/26 01:49:10;;;;;;;30.92;5.15;;;5.30;99.90;;;;;;5034436;28;20112;-89
2021/01/26 01:51:40;;;;;;;28.42;5.70;;;5.40;99.90;;;;;;5033895;28;20032;-89
2021/01/26 01:54:10;;;;;;;39.75;5.40;;;5.40;99.90;;;;;;5033180;28;20468;-91
2021/01/26 01:56:51;;;;;;;26.20;5.63;;;5.40;99.90;;;;;;5033473;28;20462;-88
2021/01/26 01:59:25;;;;;;;21.33;3.78;;;5.40;99.90;;;;;;5033124;28;20442;-88
2021/01/26 02:01:51;;;;;;;18.17;3.90;;;5.50;99.90;;;;;;5017462;28;20057;-88
2021/01/26 02:04:21;;;;;;;21.88;3.67;;;5.40;99.90;;;;;;5034425;28;20030;-86
2021/01/26 02:06:55;;;;;;;15.57;3.30;;;5.50;99.90;;;;;;5034632;28;20391;-87
2021/01/26 02:09:33;;;;;;;19.13;4.35;;;5.60;99.90;;;;;;5038118;28;20033;-89
2021/01/26 02:11:59;;;;;;;20.95;4.75;;;5.60;99.90;;;;;;5040727;28;20065;-89
2021/01/26 02:14:31;;;;;;;32.05;4.07;;;5.60;99.90;;;;;;5037755;28;20032;-88
2021/01/26 02:17:22;;;;;;;27.88;3.67;;;5.60;99.90;;;;;;5033841;28;20029;-89
2021/01/26 02:20:12;;;;;;;23.48;3.80;;;5.70;99.90;;;;;;5035799;28;20078;-89
2021/01/26 02:23:10;;;;;;;22.38;3.83;;;5.60;99.90;;;;;;5034794;28;20063;-89
2021/01/26 02:26:20;;;;;;;26.27;4.93;;;5.60;99.90;;;;;;5034750;28;20061;-89
2021/01/26 02:29:02;;;;;;;29.33;4.65;;;5.60;99.90;;;;;;5041123;28;20030;-88
2021/01/26 02:31:49;;;;;;;19.10;4.32;;;5.60;99.90;;;;;;5033429;28;20075;-88
2021/01/26 02:34:34;;;;;;;29.75;5.18;;;5.60;99.90;;;;;;5035469;28;20029;-88
2021/01/26 02:37:30;;;;;;;25.58;4.57;;;5.60;99.90;;;;;;5035692;28;20083;-89
2021/01/26 02:39:58;;;;;;;;;;;5.60;99.90;;;;;;5033924;28;20033;-89
2021/01/26 02:42:36;;;;;;;17.42;4.70;;;5.60;99.90;;;;;;5032836;28;19909;-88
2021/01/26 02:45:10;;;;;;;30.60;5.55;;;5.60;99.90;;;;;;5033165;28;20029;-89
2021/01/26 02:47:45;;;;;;;24.30;3.75;;;5.50;99.90;;;;;;5032568;28;20130;-89
2021/01/26 02:50:25;;;;;;;26.60;4.82;;;5.40;99.90;;;;;;5033981;28;20029;-93
2021/01/26 02:53:11;;;;;;;25.95;5.80;;;5.40;99.90;;;;;;5032959;28;20078;-89
2021/01/26 02:55:45;;;;;;;21.08;4.13;;;5.50;99.90;;;;;;5020204;28;20546;-89
2021/01/26 02:58:27;;;;;;;20.75;4.10;;;5.50;99.90;;;;;;5033234;28;20033;-89
2021/01/26 03:00:58;;;;;;;23.77;4.82;;;5.50;99.90;;;;;;5037253;28;20547;-89
2021/01/26 03:03:36;;;;;;;23.40;5.28;;;5.60;99.90;;;;;;5021053;28;20076;-89
2021/01/26 03:06:10;;;;;;;31.17;6.05;;;5.60;99.90;;;;;;5038289;28;20079;-89
2021/01/26 03:08:47;;;;;;;33.03;4.47;;;5.60;99.90;;;;;;5036845;28;20033;-90
2021/01/26 03:11:20;;;;;;;25.85;7.50;;;5.60;99.90;;;;;;5039270;28;20041;-92
2021/01/26 03:14:04;;;;;;;32.28;5.25;;;5.50;99.90;;;;;;5040332;28;20059;-90
2021/01/26 03:16:32;;;;;;;25.30;4.55;;;5.50;99.90;;;;;;5045746;28;20029;-89
2021/01/26 03:19:11;;;;;;;21.90;5.28;;;5.50;99.90;;;;;;5028643;28;20065;-90
2021/01/26 03:21:41;;;;;;;23.13;4.50;;;5.50;99.90;;;;;;5043037;28;20112;-90
2021/01/26 03:24:14;;;;;;;29.33;4.70;;;5.50;99.90;;;;;;5043005;28;20025;-90
2021/01/26 03:26:40;;;;;;;22.83;4.75;;;5.50;99.90;;;;;;5038320;28;20029;-90
2021/01/26 03:29:08;;;;;;;31.63;4.60;;;5.50;99.90;;;;;;5036530;28;20041;-89
2021/01/26 03:31:42;;;;;;;22.15;4.82;;;5.50;99.90;;;;;;5037102;28;20056;-90
2021/01/26 03:34:08;;;;;;;30.45;5.30;;;5.50;99.90;;;;;;5036789;28;20021;-89
2021/01/26 03:36:34;;;;;;;40.17;6.63;;;5.60;99.90;;;;;;5037080;28;20052;-89
2021/01/26 03:39:06;;;;;;;26.13;5.55;;;5.60;99.90;;;;;;5038049;28;20029;-88
2021/01/26 03:41:31;;;;;;;21.75;4.00;;;5.60;99.90;;;;;;5036978;28;20030;-88
2021/01/26 03:44:00;;;;;;;16.40;3.08;;;5.60;99.90;;;;;;5039295;28;20033;-88
2021/01/26 03:46:47;;;;;;;16.30;2.72;;;5.50;99.90;;;;;;5038725;28;20057;-88
2021/01/26 03:49:39;;;;;;;11.70;2.35;;;5.30;99.90;;;;;;5038946;28;20033;-90
2021/01/26 03:52:38;;;;;;;20.85;2.65;;;5.20;99.90;;;;;;5038576;28;20026;-89
2021/01/26 03:55:10;;;;;;;18.67;3.58;;;5.20;99.90;;;;;;5040436;28;20030;-89
2021/01/26 03:57:57;;;;;;;24.95;3.95;;;5.20;99.90;;;;;;5039166;28;20025;-88
2021/01/26 04:00:38;;;;;;;22.75;4.25;;;5.20;99.90;;;;;;5041805;28;20060;-89
2021/01/26 04:03:25;;;;;;;20.40;5.32;;;5.30;99.90;;;;;;5055330;28;20037;-89
2021/01/26 04:06:10;;;;;;;23.42;4.97;;;5.20;99.90;;;;;;5057874;28;20030;-89
2021/01/26 04:08:53;;;;;;;21.58;3.97;;;5.30;99.90;;;;;;5056142;28;20036;-89
2021/01/26 04:11:30;;;;;;;22.90;4.18;;;5.40;99.90;;;;;;5051844;28;20026;-88
2021/01/26 04:14:22;;;;;;;19.75;4.43;;;5.50;99.90;;;;;;5046144;28;20025;-89
2021/01/26 04:16:56;;;;;;;23.25;4.70;;;5.50;99.90;;;;;;5045276;28;20039;-89
2021/01/26 04:19:26;;;;;;;19.23;4.47;;;5.60;99.90;;;;;;5049445;28;20025;-94
2021/01/26 04:21:52;;;;;;;18.00;4.38;;;5.60;99.90;;;;;;5058983;28;20085;-89
2021/01/26 04:24:18;;;;;;;19.05;3.90;;;5.70;99.90;;;;;;5042048;28;20014;-89
2021/01/26 04:26:46;;;;;;;20.27;4.30;;;5.70;99.90;;;;;;5056710;28;20382;-89
2021/01/26 04:29:12;;;;;;;26.25;4.40;;;5.70;99.90;;;;;;5054244;28;20045;-89
2021/01/26 04:31:38;;;;;;;15.90;3.50;;;5.70;99.90;;;;;;5051119;28;20037;-90
2021/01/26 04:34:04;;;;;;;24.00;4.82;;;5.70;99.90;;;;;;5058081;28;20097;-89
2021/01/26 04:36:29;;;;;;;22.60;4.18;;;5.70;99.90;;;;;;5052449;28;20029;-89
2021/01/26 04:38:55;;;;;;;25.83;5.32;;;5.80;99.90;;;;;;5023045;28;20037;-89
2021/01/26 04:41:32;;;;;;;22.40;3.25;;;5.80;99.90;;;;;;5040808;28;20029;-88
2021/01/26 04:44:10;;;;;;;21.40;3.63;;;5.70;99.90;;;;;;5053212;28;20024;-87
2021/01/26 04:47:03;;;;;;;21.83;4.20;;;5.80;99.90;;;;;;5050632;28;20103;-88
2021/01/26 04:49:55;;;;;;;17.55;3.15;;;5.70;99.90;;;;;;5039180;28;20041;-89
2021/01/26 04:52:51;;;;;;;13.90;2.63;;;5.50;99.90;;;;;;5034678;28;20028;-89
2021/01/26 04:55:35;;;;;;;14.90;2.95;;;5.50;99.90;;;;;;5034236;28;20029;-88
2021/01/26 04:58:26;;;;;;;20.20;4.35;;;5.50;99.90;;;;;;5016872;28;20526;-88
2021/01/26 05:01:08;;;;;;;23.80;3.45;;;5.50;99.90;;;;;;5033632;28;20033;-89
2021/01/26 05:03:42;;;;;;;26.90;3.78;;;5.50;99.90;;;;;;5033669;28;20087;-88
2021/01/26 05:06:14;;;;;;;22.83;3.47;;;5.50;99.90;;;;;;5034452;28;20032;-89
2021/01/26 05:08:44;;;;;;;13.68;3.05;;;5.50;99.90;;;;;;5033536;28;20462;-88
2021/01/26 05:11:16;;;;;;;10.88;2.75;;;5.60;99.90;;;;;;5034504;28;20029;-89
2021/01/26 05:13:45;;;;;;;11.35;2.60;;;5.50;99.90;;;;;;5035057;28;20028;-89
2021/01/26 05:16:24;;;;;;;24.13;3.40;;;5.50;99.90;;;;;;5033380;28;20533;-89
2021/01/26 05:19:17;;;;;;;18.05;3.22;;;5.60;99.90;;;;;;5033183;28;20062;-89
2021/01/26 05:22:02;;;;;;;21.42;4.03;;;5.60;99.90;;;;;;5032911;28;20475;-89
2021/01/26 05:24:53;;;;;;;13.90;3.25;;;5.60;99.90;;;;;;5033271;28;20052;-90
2021/01/26 05:27:19;;;;;;;17.25;3.08;;;5.50;99.90;;;;;;5032851;28;20045;-89
2021/01/26 05:29:45;;;;;;;13.77;3.20;;;5.40;99.90;;;;;;5016480;28;20025;-89
2021/01/26 05:32:12;;;;;;;16.08;3.67;;;5.40;99.90;;;;;;5016802;28;20041;-88
2021/01/26 05:34:39;;;;;;;15.20;2.97;;;5.40;99.90;;;;;;5032517;28;20061;-88
2021/01/26 05:37:07;;;;;;;15.23;3.08;;;5.40;99.90;;;;;;5032828;28;20083;-89
2021/01/26 05:40:07;;;;;;;10.40;3.05;;;5.50;99.90;;;;;;5016353;28;20040;-88
2021/01/26 05:42:34;;;;;;;18.83;3.50;;;5.50;99.90;;;;;;5035007;28;20467;-88
2021/01/26 05:45:08;;;;;;;17.42;3.35;;;5.60;99.90;;;;;;5000258;28;20030;-88
2021/01/26 05:47:38;;;;;;;11.55;2.60;;;5.60;99.90;;;;;;5033176;28;20145;-88
2021/01/26 05:50:22;;;;;;;18.70;3.08;;;5.50;99.90;;;;;;5032715;28;20033;-88
2021/01/26 05:52:48;;;;;;;19.20;2.97;;;5.60;99.90;;;;;;5033056;28;20434;-88
2021/01/26 05:55:24;;;;;;;11.07;2.42;;;5.60;99.90;;;;;;5016033;28;20124;-88
2021/01/26 05:57:50;;;;;;;18.27;2.75;;;5.60;99.90;;;;;;5032704;28;20529;-89
2021/01/26 06:00:16;;;;;;;11.85;2.80;;;5.50;99.90;;;;;;5016143;28;20471;-88
2021/01/26 06:02:43;;;;;;;19.17;3.03;;;5.50;99.90;;;;;;5032261;28;20055;-89
2021/01/26 06:05:16;;;;;;;13.65;2.65;;;5.50;99.90;;;;;;5015938;28;20344;-88
2021/01/26 06:07:42;;;;;;;12.02;2.38;;;5.50;99.90;;;;;;5033404;28;20483;-87
2021/01/26 06:10:19;;;;;;;9.82;2.60;;;5.40;99.90;;;;;;5032364;28;20033;-88
2021/01/26 06:12:55;;;;;;;8.07;1.90;;;5.40;99.90;;;;;;5038067;28;20030;-88
2021/01/26 06:15:24;;;;;;;9.55;2.20;;;5.30;99.90;;;;;;5020013;28;20029;-88
2021/01/26 06:17:50;;;;;;;16.08;2.88;;;5.30;99.90;;;;;;5033289;28;20036;-87
2021/01/26 06:20:20;;;;;;;10.85;2.25;;;5.30;99.90;;;;;;5033514;28;20025;-88
2021/01/26 06:22:47;;;;;;;9.52;2.13;;;5.30;99.90;;;;;;5032991;28;20033;-88
2021/01/26 06:25:26;;;;;;;11.20;2.03;;;5.20;99.90;;;;;;5033333;28;20021;-88
2021/01/26 06:28:12;;;;;;;7.13;1.58;;;5.30;99.90;;;;;;5031895;28;20107;-89
2021/01/26 06:31:10;;;;;;;11.02;1.65;;;5.20;99.90;;;;;;5032015;28;20080;-88
2021/01/26 06:34:01;;;;;;;7.50;1.70;;;5.20;99.90;;;;;;5034636;28;20056;-89
2021/01/26 06:36:45;;;;;;;10.48;2.88;;;5.30;99.90;;;;;;5036013;28;20033;-88
2021/01/26 06:39:44;;;;;;;9.07;1.93;;;5.30;99.90;;;;;;5035945;28;20071;-88
2021/01/26 06:42:23;;;;;;;18.25;2.53;;;5.30;99.90;;;;;;5035643;28;20463;-88
2021/01/26 06:45:00;;;;;;;17.35;2.70;;;5.30;99.90;;;;;;5035605;28;20394;-88
2021/01/26 06:47:41;;;;;;;16.20;2.90;;;5.30;99.90;;;;;;5035631;28;20076;-88
2021/01/26 06:50:24;;;;;;;16.98;3.63;;;5.20;99.90;;;;;;5035926;28;20033;-88
2021/01/26 06:53:10;;;;;;;19.20;3.58;;;5.20;99.90;;;;;;5035725;28;20018;-88
2021/01/26 06:55:57;;;;;;;14.77;2.95;;;5.20;99.90;;;;;;5035998;28;20031;-89
2021/01/26 06:58:23;;;;;;;16.15;3.88;;;5.30;99.90;;;;;;5036133;28;20393;-88
2021/01/26 07:01:41;;;;;;;17.10;2.90;;;5.20;99.90;;;;;;5038029;28;20031;-88
2021/01/26 07:04:15;;;;;;;13.50;3.08;;;5.30;99.90;;;;;;4981763;28;20111;-88
2021/01/26 07:07:01;;;;;;;20.58;4.05;;;5.30;99.90;;;;;;5038752;28;20030;-89
2021/01/26 07:09:37;;;;;;;18.67;2.80;;;5.20;99.90;;;;;;5020383;28;20029;-90
2021/01/26 07:12:16;;;;;;;21.10;2.35;;;5.20;99.90;;;;;;5038226;28;20037;-89
2021/01/26 07:14:58;;;;;;;14.73;2.60;;;5.20;99.90;;;;;;5040660;28;20025;-89
2021/01/26 07:17:39;;;;;;;10.32;2.45;;;5.20;99.90;;;;;;5040007;28;20055;-88
2021/01/26 07:20:04;;;;;;;10.02;2.20;;;5.10;99.90;;;;;;5036942;28;20533;-88
2021/01/26 07:22:52;;;;;;;10.43;2.40;;;5.20;99.90;;;;;;5037872;28;20029;-89
2021/01/26 07:25:32;;;;;;;6.15;1.95;;;5.10;99.90;;;;;;5036032;28;20039;-89
2021/01/26 07:28:24;;;;;;;14.02;2.10;;;5.10;99.90;;;;;;5035510;28;20049;-88
2021/01/26 07:31:14;;;;;;;9.20;1.90;;;5.10;99.90;;;;;;5036845;28;20029;-89
2021/01/26 07:34:00;;;;;;;8.82;2.17;;;5.20;99.90;;;;;;5036866;28;20036;-89
2021/01/26 07:36:39;;;;;;;14.95;2.70;;;5.20;99.90;;;;;;5036108;28;20140;-89
2021/01/26 07:39:30;;;;;;;15.65;2.95;;;5.30;99.90;;;;;;5036348;28;20032;-94
2021/01/26 07:42:20;;;;;;;14.15;3.15;;;5.30;99.90;;;;;;5038298;28;20041;-94
2021/01/26 07:45:24;;;;;;;15.95;3.42;;;5.30;99.90;;;;;;5035520;28;20028;-89
2021/01/26 07:48:03;;;;;;;15.55;5.43;;;5.30;99.90;;;;;;5035209;28;20054;-89
2021/01/26 07:50:57;;;;;;;9.60;3.00;;;5.30;99.90;;;;;;5036341;28;20056;-89
2021/01/26 07:53:41;;;;;;;16.75;3.10;;;5.30;99.90;;;;;;5025337;28;20344;-89
2021/01/26 07:56:32;;;;;;;13.90;3.80;;;5.30;99.90;;;;;;5034559;28;20079;-89
2021/01/26 07:59:03;;;;;;;17.38;4.35;;;5.40;99.90;;;;;;5034897;28;20505;-89
2021/01/26 08:01:37;;;;;;;13.13;3.33;;;5.40;99.90;;;;;;5034400;28;20113;-89
2021/01/26 08:04:04;;;;;;;17.13;3.05;;;5.60;99.90;;;;;;5034551;28;20146;-89
2021/01/26 08:06:35;;;;;;;10.70;2.58;;;5.50;99.90;;;;;;5035736;28;20091;-89
2021/01/26 08:09:06;;;;;;;11.32;2.72;;;5.60;99.90;;;;;;5034117;28;20034;-89
2021/01/26 08:11:33;;;;;;;14.63;2.65;;;5.70;99.90;;;;;;5034313;28;20021;-90
2021/01/26 08:14:01;;;;;;;13.63;2.85;;;5.70;99.90;;;;;;5034245;28;20037;-89
2021/01/26 08:16:31;;;;;;;13.52;2.60;;;5.70;99.90;;;;;;5034144;28;20487;-88
2021/01/26 08:18:59;;;;;;;15.60;2.60;;;5.70;99.90;;;;;;5034821;28;20041;-89
2021/01/26 08:21:42;;;;;;;14.65;2.53;;;5.80;99.90;;;;;;5035449;28;20034;-89
2021/01/26 08:24:23;;;;;;;25.08;3.85;;;5.90;99.90;;;;;;5033713;28;20033;-89
2021/01/26 08:26:54;;;;;;;19.65;4.18;;;5.90;99.90;;;;;;5035375;28;20048;-88
2021/01/26 08:29:38;;;;;;;9.05;3.13;;;5.90;99.90;;;;;;5036271;28;20026;-89
2021/01/26 08:32:22;;;;;;;22.10;3.75;;;6.00;99.90;;;;;;5038641;28;20075;-88
2021/01/26 08:35:02;;;;;;;17.58;2.78;;;5.90;99.90;;;;;;5036071;28;20490;-87
2021/01/26 08:37:44;;;;;;;11.15;2.47;;;5.80;99.90;;;;;;5035412;28;20029;-86
2021/01/26 08:40:18;;;;;;;23.13;2.97;;;5.80;99.90;;;;;;5033465;28;20037;-86
2021/01/26 08:42:44;;;;;;;15.88;2.88;;;5.80;99.90;;;;;;5035029;28;20048;-86
2021/01/26 08:45:25;;;;;;;22.35;3.53;;;5.80;99.90;;;;;;5033244;28;20036;-87
2021/01/26 08:47:57;;;;;;;11.13;3.28;;;5.80;99.90;;;;;;5033140;28;20049;-86
2021/01/26 08:50:46;;;;;;;13.35;2.45;;;5.80;99.90;;;;;;5032836;28;20468;-86
2021/01/26 08:53:26;;;;;;;13.02;2.25;;;5.90;99.90;;;;;;5034973;28;20025;-87
2021/01/26 08:56:32;;;;;;;14.25;3.42;;;5.90;99.90;;;;;;5034065;28;20690;-88
2021/01/26 08:58:58;;;;;;;9.73;2.63;;;5.90;99.90;;;;;;5032458;28;20063;-87
2021/01/26 09:01:25;;;;;;;14.10;2.97;;;6.00;99.90;;;;;;5034922;28;20037;-87
2021/01/26 09:04:12;;;;;;;13.70;3.10;;;6.00;99.90;;;;;;5036838;28;20391;-90
2021/01/26 09:06:43;;;;;;;13.65;3.15;;;6.10;99.90;;;;;;5043275;28;20045;-88
2021/01/26 09:09:18;;;;;;;21.10;3.42;;;6.10;99.90;;;;;;5062487;28;20039;-88
2021/01/26 09:11:43;;;;;;;20.45;3.30;;;6.10;99.90;;;;;;5059920;28;20036;-88
2021/01/26 09:14:12;;;;;;;13.80;2.83;;;6.20;99.90;;;;;;5057459;28;20025;-87
2021/01/26 09:16:41;;;;;;;14.35;3.00;;;6.20;99.90;;;;;;5057404;28;20029;-87
2021/01/26 09:19:17;;;;;;;15.85;3.10;;;6.20;99.90;;;;;;5057200;28;20489;-87
2021/01/26 09:21:42;;;;;;;11.65;2.97;;;6.20;99.90;;;;;;5055620;28;20194;-88
2021/01/26 09:24:10;;;;;;;11.27;2.35;;;6.20;99.90;;;;;;5039938;28;20487;-89
2021/01/26 09:26:35;;;;;;;17.27;3.03;;;6.20;99.90;;;;;;5059325;28;20040;-87
2021/01/26 09:29:01;;;;;;;14.60;2.42;;;6.20;99.90;;;;;;5025185;28;20041;-87
2021/01/26 09:31:30;;;;;;;12.55;2.88;;;6.30;99.90;;;;;;5054381;28;20032;-87
2021/01/26 09:34:06;;;;;;;16.77;3.15;;;6.30;99.90;;;;;;5057674;28;20467;-87
2021/01/26 09:36:34;;;;;;;11.07;2.28;;;6.40;99.90;;;;;;5058387;28;20101;-87
2021/01/26 09:39:09;;;;;;;13.20;2.70;;;6.30;99.90;;;;;;5055222;28;20396;-87
2021/01/26 09:41:36;;;;;;;17.10;2.97;;;6.30;99.90;;;;;;5054249;28;20094;-88
2021/01/26 09:44:09;;;;;;;11.35;2.13;;;6.40;99.90;;;;;;5054894;28;20029;-87
2021/01/26 09:46:41;;;;;;;18.23;3.63;;;6.50;99.90;;;;;;5054913;28;20076;-89
2021/01/26 09:49:09;;;;;;;8.95;2.55;;;6.50;99.90;;;;;;5037701;28;20029;-88
2021/01/26 09:51:51;;;;;;;17.85;2.53;;;6.60;99.90;;;;;;5056278;28;20036;-87
2021/01/26 09:54:26;;;;;;;10.77;2.17;;;6.60;99.90;;;;;;5057165;28;20029;-86
2021/01/26 09:56:52;;;;;;;8.07;2.03;;;6.60;99.90;;;;;;5039167;28;20029;-86
2021/01/26 09:59:19;;;;;;;8.30;2.65;;;6.60;99.90;;;;;;5022267;28;20037;-87
2021/01/26 10:01:47;;;;;;;8.50;2.03;;;6.60;99.90;;;;;;5039626;28;20032;-87
2021/01/26 10:04:14;;;;;;;9.90;2.58;;;6.70;99.90;;;;;;5038451;28;20036;-87
2021/01/26 10:06:40;;;;;;;15.40;2.67;;;6.60;99.90;;;;;;5057628;28;20040;-86
2021/01/26 10:09:27;;;;;;;14.73;2.78;;;6.50;99.90;;;;;;5038277;28;20029;-86
2021/01/26 10:12:14;;;;;;;11.15;2.45;;;6.30;99.90;;;;;;5038783;28;20084;-87
2021/01/26 10:14:39;;;;;;;14.65;2.72;;;6.30;99.90;;;;;;5038260;28;20025;-86
2021/01/26 10:17:18;;;;;;;14.13;4.00;;;6.40;99.90;;;;;;5005162;28;20056;-86
2021/01/26 10:19:44;;;;;;;13.18;3.05;;;6.40;99.90;;;;;;5053317;28;20501;-85
2021/01/26 10:22:11;;;;;;;12.85;2.88;;;6.30;99.90;;;;;;5019483;28;20041;-87
2021/01/26 10:24:37;;;;;;;15.15;2.88;;;6.40;99.90;;;;;;5035211;28;20025;-87
2021/01/26 10:27:07;;;;;;;11.50;2.22;;;6.40;99.90;;;;;;5035116;28;20030;-86
2021/01/26 10:29:37;;;;;;;8.30;1.60;;;6.30;99.90;;;;;;5035094;28;20029;-86
2021/01/26 10:32:03;;;;;;;6.32;1.08;;;6.30;99.90;;;;;;5035698;28;20025;-87
2021/01/26 10:34:35;;;;;;;9.98;1.70;;;6.30;99.90;;;;;;5035629;28;20021;-87
2021/01/26 10:37:29;;;;;;;5.05;1.58;;;6.30;99.90;;;;;;5035667;28;20037;-87
2021/01/26 10:40:27;;;;;;;6.70;1.70;;;6.30;99.90;;;;;;5053659;28;20040;-87
2021/01/26 10:43:16;;;;;;;10.98;1.90;;;6.30;99.90;;;;;;5039605;28;20017;-87
2021/01/26 10:45:49;;;;;;;11.82;2.50;;;6.30;99.90;;;;;;5039041;28;20033;-88
2021/01/26 10:48:32;;;;;;;8.75;1.63;;;6.30;99.90;;;;;;5051784;28;20053;-89
2021/01/26 10:51:15;;;;;;;10.60;2.70;;;6.30;99.90;;;;;;5052515;28;20052;-89
2021/01/26 10:53:44;;;;;;;7.00;2.17;;;6.40;99.90;;;;;;5053813;28;20485;-88
2021/01/26 10:56:11;;;;;;;9.00;2.03;;;6.50;99.90;;;;;;5053186;28;20029;-88
2021/01/26 10:58:39;;;;;;;11.55;3.20;;;6.50;99.90;;;;;;5053150;28;20040;-89
2021/01/26 11:01:05;;;;;;;11.23;2.58;;;6.20;99.90;;;;;;5054217;28;20033;-87
2021/01/26 11:03:30;;;;;;;9.13;1.73;;;5.90;99.90;;;;;;5060492;28;20057;-88
2021/01/26 11:05:56;;;;;;;6.55;1.70;;;5.70;99.90;;;;;;5055081;28;20029;-87
2021/01/26 11:08:22;;;;;;;4.47;1.10;;;5.60;99.90;;;;;;5035164;28;20364;-89
2021/01/26 11:13:53;;;;;;;9.02;3.00;;;5.60;99.90;;;;;;5096268;27;765441;-87
2021/01/26 11:16:19;;;;;;;13.25;2.30;;;5.60;99.90;;;;;;5091095;28;20028;-88
2021/01/26 11:18:47;;;;;;;12.30;2.10;;;5.80;99.90;;;;;;5089713;28;20028;-88
2021/01/26 11:21:13;;;;;;;6.68;1.70;;;5.90;99.90;;;;;;5090900;28;20482;-88
2021/01/26 11:23:40;;;;;;;8.50;2.35;;;6.10;99.90;;;;;;5089816;28;20028;-88
2021/01/26 11:26:07;;;;;;;12.52;3.20;;;6.10;99.90;;;;;;5089705;28;20024;-89
2021/01/26 11:28:33;;;;;;;9.35;2.25;;;6.00;99.90;;;;;;5097580;28;20028;-88
2021/01/26 11:31:01;;;;;;;13.07;2.30;;;6.00;99.90;;;;;;5072590;28;20028;-88
2021/01/26 11:33:27;;;;;;;13.23;2.58;;;6.00;99.90;;;;;;5090173;28;20028;-87
2021/01/26 11:35:53;;;;;;;14.13;2.80;;;6.10;99.90;;;;;;5089765;28;20032;-88
2021/01/26 11:38:24;;;;;;;15.77;3.88;;;6.10;99.90;;;;;;5089030;28;20025;-88
2021/01/26 11:40:49;;;;;;;16.92;3.30;;;6.10;99.90;;;;;;5089513;28;20078;-88
2021/01/26 11:43:17;;;;;;;12.00;2.92;;;6.10;99.90;;;;;;5092337;28;20040;-86
2021/01/26 11:45:44;;;;;;;16.30;3.22;;;6.20;99.90;;;;;;5073371;28;20124;-87
2021/01/26 11:48:10;;;;;;;15.10;3.30;;;6.20;99.90;;;;;;5093497;28;20074;-87
2021/01/26 11:50:37;;;;;;;18.25;3.63;;;6.30;99.90;;;;;;5074668;28;20059;-88
2021/01/26 11:53:14;;;;;;;19.38;5.45;;;6.30;99.90;;;;;;5090934;28;20107;-89
2021/01/26 11:55:41;;;;;;;14.15;3.67;;;6.40;99.90;;;;;;5089368;28;20032;-88
2021/01/26 11:58:08;;;;;;;19.13;3.33;;;6.50;99.90;;;;;;5090040;28;20056;-87
2021/01/26 12:00:34;;;;;;;13.60;3.60;;;6.50;99.90;;;;;;5089619;28;20393;-88
2021/01/26 12:03:04;;;;;;;15.10;3.58;;;6.60;99.90;;;;;;5091979;28;20033;-86
2021/01/26 12:05:35;;;;;;;14.95;3.85;;;6.80;99.90;;;;;;5090821;28;20051;-86
2021/01/26 12:08:01;;;;;;;32.72;4.55;;;6.90;99.90;;;;;;5092778;28;20046;-86
2021/01/26 12:10:27;;;;;;;13.20;3.53;;;6.80;99.90;;;;;;5074935;28;20127;-86
2021/01/26 12:12:55;;;;;;;23.63;4.10;;;6.70;99.90;;;;;;5092226;28;20087;-87
2021/01/26 12:15:28;;;;;;;21.55;4.18;;;6.80;99.90;;;;;;5094077;28;20032;-87
2021/01/26 12:17:54;;;;;;;17.90;4.57;;;6.70;99.90;;;;;;5093876;28;20039;-88
2021/01/26 12:20:20;;;;;;;15.18;4.25;;;6.80;99.90;;;;;;5091684;28;20059;-87
2021/01/26 12:22:46;;;;;;;14.40;3.83;;;6.70;99.90;;;;;;5057544;28;20040;-88
2021/01/26 12:25:14;;;;;;;25.95;4.22;;;6.70;99.90;;;;;;5078695;28;20073;-88
2021/01/26 12:27:40;;;;;;;17.67;4.22;;;6.70;99.90;;;;;;5078500;28;20050;-88
2021/01/26 12:30:07;;;;;;;21.23;4.60;;;6.70;99.90;;;;;;5080327;28;20048;-88
2021/01/26 12:32:38;;;;;;;22.90;4.57;;;6.60;99.90;;;;;;5086097;28;20056;-88
2021/01/26 12:35:09;;;;;;;16.67;4.93;;;6.60;99.90;;;;;;5077669;28;20043;-87
2021/01/26 12:37:37;;;;;;;11.88;3.63;;;6.50;99.90;;;;;;5095760;28;20052;-87
2021/01/26 12:40:04;;;;;;;17.30;3.45;;;6.50;99.90;;;;;;5099449;28;20012;-88
2021/01/26 12:42:29;;;;;;;19.02;4.63;;;6.50;99.90;;;;;;5099212;28;20084;-87
2021/01/26 12:44:55;;;;;;;17.50;3.95;;;6.50;99.90;;;;;;5098521;28;20025;-89
2021/01/26 12:47:24;;;;;;;16.15;3.90;;;6.60;99.90;;;;;;5078215;28;20043;-88
2021/01/26 12:49:51;;;;;;;20.27;3.50;;;6.60;99.90;;;;;;5095707;28;20047;-88
2021/01/26 12:52:20;;;;;;;16.50;4.18;;;6.60;99.90;;;;;;5085034;28;20035;-88
2021/01/26 12:54:45;;;;;;;14.98;4.75;;;6.60;99.90;;;;;;5084583;28;20055;-88
2021/01/26 12:57:15;;;;;;;19.08;3.80;;;6.70;99.90;;;;;;5087825;28;20029;-86
2021/01/26 12:59:41;;;;;;;12.30;3.45;;;6.80;99.90;;;;;;5089741;28;20031;-88
2021/01/26 13:02:06;;;;;;;15.20;4.18;;;6.70;99.90;;;;;;5093069;28;20044;-89
2021/01/26 13:04:35;;;;;;;16.33;3.72;;;6.70;99.90;;;;;;5097746;28;20032;-88
2021/01/26 13:07:00;;;;;;;15.18;3.22;;;6.70;99.90;;;;;;5091367;28;20054;-87
2021/01/26 13:09:26;;;;;;;18.33;3.30;;;6.70;99.90;;;;;;5088647;28;20115;-89
2021/01/26 13:11:52;;;;;;;13.20;3.97;;;6.60;99.90;;;;;;5083890;28;20096;-87
2021/01/26 13:14:18;;;;;;;14.57;3.22;;;6.60;99.90;;;;;;5080113;28;20075;-89
2021/01/26 13:16:44;;;;;;;15.70;4.57;;;6.70;99.90;;;;;;5079528;28;20471;-91
2021/01/26 13:19:10;;;;;;;13.45;3.00;;;6.80;99.90;;;;;;5079159;28;20024;-89
2021/01/26 13:21:36;;;;;;;12.18;3.10;;;6.80;99.90;;;;;;5077326;28;20036;-88
2021/01/26 13:24:03;;;;;;;11.88;3.20;;;6.80;99.90;;;;;;5077929;28;20477;-86